createdAt,value
2022-08-24T00:01:30.439Z,19.30
2022-08-24T00:04:39.197Z,19.33
2022-08-24T00:07:47.488Z,19.39
2022-08-24T00:10:53.622Z,19.50
2022-08-24T00:14:00.615Z,19.50
2022-08-24T00:17:09.078Z,19.50
2022-08-24T00:20:19.856Z,19.53
2022-08-24T00:23:27.444Z,19.57
2022-08-24T00:26:35.431Z,19.60
2022-08-24T00:29:41.574Z,19.57
2022-08-24T00:32:50.205Z,19.47
2022-08-24T00:35:59.205Z,19.43
2022-08-24T00:39:09.271Z,19.38
2022-08-24T00:42:15.667Z,19.40
2022-08-24T00:45:24.761Z,19.41
2022-08-24T00:48:35.130Z,19.43
2022-08-24T00:51:58.786Z,19.42
2022-08-24T00:55:13.309Z,19.37
2022-08-24T00:58:25.642Z,19.32
2022-08-24T01:01:36.984Z,19.30
2022-08-24T01:04:52.216Z,19.30
2022-08-24T01:08:03.265Z,19.30
2022-08-24T01:11:15.035Z,19.32
2022-08-24T01:14:25.087Z,19.34
2022-08-24T01:17:46.451Z,19.30
2022-08-24T01:21:00.060Z,19.25
2022-08-24T01:24:16.017Z,19.30
2022-08-24T01:27:26.378Z,19.29
2022-08-24T01:30:36.737Z,19.32
2022-08-24T01:33:43.747Z,19.33
2022-08-24T01:36:56.330Z,19.32
2022-08-24T01:40:09.917Z,19.33
2022-08-24T01:43:17.902Z,19.31
2022-08-24T01:46:25.007Z,19.35
2022-08-24T01:49:34.379Z,19.35
2022-08-24T01:53:04.349Z,19.39
2022-08-24T01:56:16.041Z,19.34
2022-08-24T01:59:24.017Z,19.29
2022-08-24T02:02:33.961Z,19.25
2022-08-24T02:05:41.297Z,19.22
2022-08-24T02:08:53.431Z,19.18
2022-08-24T02:12:03.669Z,19.15
2022-08-24T02:15:15.074Z,19.11
2022-08-24T02:18:22.187Z,19.08
2022-08-24T02:21:29.639Z,19.05
2022-08-24T02:24:37.072Z,19.04
2022-08-24T02:27:47.236Z,19.06
2022-08-24T02:30:53.945Z,19.09
2022-08-24T02:34:00.817Z,19.16
2022-08-24T02:37:10.424Z,19.22
2022-08-24T02:40:17.439Z,19.26
2022-08-24T02:43:27.573Z,19.26
2022-08-24T02:46:34.737Z,19.24
2022-08-24T02:49:42.430Z,19.20
2022-08-24T02:52:49.372Z,19.16
2022-08-24T02:55:56.148Z,19.12
2022-08-24T02:59:06.178Z,19.12
2022-08-24T03:02:13.265Z,19.20
2022-08-24T03:05:20.498Z,19.23
2022-08-24T03:08:27.862Z,19.25
2022-08-24T03:11:35.308Z,19.28
2022-08-24T03:14:45.285Z,19.36
2022-08-24T03:17:52.384Z,19.37
2022-08-24T03:21:03.186Z,19.42
2022-08-24T03:24:12.251Z,19.43
2022-08-24T03:27:19.684Z,19.47
2022-08-24T03:30:29.300Z,19.47
2022-08-24T03:33:38.398Z,19.48
2022-08-24T03:36:46.466Z,19.48
2022-08-24T03:39:55.031Z,19.46
2022-08-24T03:43:03.243Z,19.52
2022-08-24T03:46:13.694Z,19.58
2022-08-24T03:49:21.905Z,19.58
2022-08-24T03:52:33.449Z,19.59
2022-08-24T03:55:40.370Z,19.61
2022-08-24T03:58:47.282Z,19.61
2022-08-24T04:01:57.624Z,19.66
2022-08-24T04:05:08.192Z,19.68
2022-08-24T04:08:15.339Z,19.69
2022-08-24T04:11:27.011Z,19.74
2022-08-24T04:14:34.627Z,19.75
2022-08-24T04:17:53.129Z,19.75
2022-08-24T04:20:59.237Z,19.79
2022-08-24T04:24:07.510Z,19.82
2022-08-24T04:27:14.331Z,19.82
2022-08-24T04:30:21.541Z,19.85
2022-08-24T04:33:45.253Z,19.84
2022-08-24T04:36:52.310Z,19.83
2022-08-24T04:39:58.455Z,19.87
2022-08-24T04:43:19.482Z,19.86
2022-08-24T04:46:26.757Z,19.87
2022-08-24T04:49:38.526Z,19.92
2022-08-24T04:52:45.299Z,19.93
2022-08-24T04:55:56.567Z,19.99
2022-08-24T04:59:06.231Z,19.97
2022-08-24T05:02:14.261Z,19.98
2022-08-24T05:05:24.292Z,20.06
2022-08-24T05:08:31.678Z,20.07
2022-08-24T05:11:40.593Z,20.04
2022-08-24T05:14:47.903Z,20.07
2022-08-24T05:17:55.231Z,20.12
2022-08-24T05:21:06.359Z,20.18
2022-08-24T05:24:13.078Z,20.17
2022-08-24T05:27:20.800Z,20.15
2022-08-24T05:30:31.176Z,20.15
2022-08-24T05:33:38.389Z,20.16
2022-08-24T05:36:48.360Z,20.20
2022-08-24T05:40:11.988Z,20.17
2022-08-24T05:43:22.603Z,20.18
2022-08-24T05:46:31.925Z,20.22
2022-08-24T05:49:41.351Z,20.21
2022-08-24T05:52:52.416Z,20.21
2022-08-24T05:56:00.137Z,20.23
2022-08-24T05:59:08.826Z,20.30
2022-08-24T06:02:15.521Z,20.33
2022-08-24T06:05:22.739Z,20.34
2022-08-24T06:08:31.695Z,20.33
2022-08-24T06:11:41.939Z,20.28
2022-08-24T06:14:49.217Z,20.30
2022-08-24T06:18:00.668Z,20.36
2022-08-24T06:21:09.643Z,20.41
2022-08-24T06:24:40.171Z,20.42
2022-08-24T06:27:43.657Z,20.50
2022-08-24T06:30:50.681Z,20.60
2022-08-24T06:34:03.078Z,20.69
2022-08-24T06:37:10.565Z,20.73
2022-08-24T06:40:20.756Z,20.78
2022-08-24T06:43:27.687Z,20.84
2022-08-24T06:46:38.736Z,20.84
2022-08-24T06:49:46.168Z,20.88
2022-08-24T06:52:52.090Z,20.98
2022-08-24T06:56:04.202Z,21.02
2022-08-24T06:59:12.831Z,21.05
2022-08-24T07:02:19.650Z,21.16
2022-08-24T07:05:26.369Z,21.26
2022-08-24T07:08:57.133Z,21.35
2022-08-24T07:12:06.708Z,21.44
2022-08-24T07:15:16.321Z,21.55
2022-08-24T07:18:26.955Z,21.58
2022-08-24T07:21:34.699Z,21.58
2022-08-24T07:24:40.663Z,21.58
2022-08-24T07:27:51.733Z,21.60
2022-08-24T07:30:58.938Z,21.64
2022-08-24T07:34:09.774Z,21.68
2022-08-24T07:37:16.442Z,21.67
2022-08-24T07:40:30.159Z,21.64
2022-08-24T07:43:43.071Z,21.67
2022-08-24T07:49:57.539Z,21.63
2022-08-24T07:53:09.755Z,21.68
2022-08-24T07:56:19.387Z,21.79
2022-08-24T07:59:31.283Z,21.86
2022-08-24T08:02:37.518Z,22.08
2022-08-24T08:05:45.251Z,22.27
2022-08-24T08:08:51.616Z,22.41
2022-08-24T08:11:58.806Z,22.54
2022-08-24T08:15:09.743Z,22.64
2022-08-24T08:18:25.423Z,22.72
2022-08-24T08:21:47.415Z,22.86
2022-08-24T08:24:54.236Z,22.95
2022-08-24T08:28:07.790Z,23.05
2022-08-24T08:31:28.520Z,23.14
2022-08-24T08:34:34.830Z,23.22
2022-08-24T08:37:42.812Z,23.33
2022-08-24T08:41:00.963Z,23.46
2022-08-24T08:44:16.414Z,23.57
2022-08-24T08:47:56.733Z,23.52
2022-08-24T08:51:42.498Z,23.50
2022-08-24T08:54:59.806Z,23.58
2022-08-24T08:58:57.674Z,23.64
2022-08-24T09:02:25.372Z,23.88
2022-08-24T09:06:04.027Z,24.02
2022-08-24T09:09:36.684Z,24.07
2022-08-24T09:12:57.065Z,24.08
2022-08-24T09:16:16.925Z,24.09
2022-08-24T09:19:43.424Z,24.06
2022-08-24T09:23:06.241Z,23.98
2022-08-24T09:26:24.057Z,23.91
2022-08-24T09:29:46.396Z,23.92
2022-08-24T09:33:04.099Z,23.83
2022-08-24T09:36:14.313Z,23.70
2022-08-24T09:39:39.899Z,23.74
2022-08-24T09:43:13.223Z,23.82
2022-08-24T09:47:16.504Z,23.94
2022-08-24T09:50:54.769Z,24.05
2022-08-24T09:54:44.900Z,24.16
2022-08-24T09:58:13.647Z,24.19
2022-08-24T10:01:31.768Z,24.29
2022-08-24T10:04:46.792Z,24.46
2022-08-24T10:08:06.563Z,24.71
2022-08-24T10:11:26.388Z,24.94
2022-08-24T10:14:48.306Z,25.11
2022-08-24T10:18:13.947Z,24.96
2022-08-24T10:21:32.227Z,24.78
2022-08-24T10:24:50.497Z,24.95
2022-08-24T10:28:10.672Z,25.06
2022-08-24T10:31:22.552Z,25.15
2022-08-24T10:34:45.035Z,25.48
2022-08-24T10:38:46.706Z,25.90
2022-08-24T10:42:59.268Z,25.95
2022-08-24T10:46:43.442Z,26.09
2022-08-24T10:50:31.092Z,26.11
2022-08-24T10:53:38.445Z,26.05
2022-08-24T10:57:00.734Z,25.94
2022-08-24T11:00:22.526Z,25.72
2022-08-24T11:03:32.969Z,25.76
2022-08-24T11:06:41.569Z,25.83
2022-08-24T11:09:53.564Z,25.95
2022-08-24T11:13:16.683Z,26.03
2022-08-24T11:16:29.675Z,26.32
2022-08-24T11:19:38.859Z,26.72
2022-08-24T11:23:03.278Z,27.04
2022-08-24T11:26:16.043Z,27.10
2022-08-24T11:29:23.854Z,26.95
2022-08-24T11:32:34.189Z,27.01
2022-08-24T11:35:43.797Z,27.02
2022-08-24T11:38:50.225Z,26.80
2022-08-24T11:42:03.100Z,26.78
2022-08-24T11:45:17.443Z,26.71
2022-08-24T11:48:37.347Z,26.57
2022-08-24T11:51:58.591Z,26.50
2022-08-24T11:55:15.219Z,26.16
2022-08-24T11:58:31.041Z,26.14
2022-08-24T12:01:48.261Z,26.07
2022-08-24T12:05:06.402Z,26.11
2022-08-24T12:08:26.449Z,25.99
2022-08-24T12:11:39.784Z,25.96
2022-08-24T12:15:00.554Z,26.17
2022-08-24T12:18:19.509Z,26.49
2022-08-24T12:21:32.061Z,26.66
2022-08-24T12:24:46.366Z,26.66
2022-08-24T12:27:55.687Z,26.46
2022-08-24T12:31:07.081Z,26.28
2022-08-24T12:34:21.679Z,26.21
2022-08-24T12:37:33.181Z,26.12
2022-08-24T12:40:48.257Z,26.15
2022-08-24T12:43:59.011Z,26.27
2022-08-24T12:47:07.102Z,26.37
2022-08-24T12:50:22.094Z,26.43
2022-08-24T12:53:52.429Z,26.42
2022-08-24T12:57:15.711Z,26.30
2022-08-24T13:00:26.102Z,26.34
2022-08-24T13:03:37.903Z,26.39
2022-08-24T13:06:49.699Z,26.62
2022-08-24T13:10:13.925Z,26.80
2022-08-24T13:13:44.717Z,26.79
2022-08-24T13:17:12.938Z,26.52
2022-08-24T13:20:24.439Z,26.52
2022-08-24T13:23:30.932Z,26.65
2022-08-24T13:26:37.800Z,26.79
2022-08-24T13:29:53.023Z,26.92
2022-08-24T13:33:06.620Z,27.00
2022-08-24T13:36:48.824Z,26.99
2022-08-24T13:40:11.485Z,26.87
2022-08-24T13:43:22.357Z,26.81
2022-08-24T13:46:44.429Z,26.77
2022-08-24T13:50:04.891Z,26.75
2022-08-24T13:53:49.786Z,26.76
2022-08-24T13:57:19.050Z,26.76
2022-08-24T14:00:47.219Z,26.64
2022-08-24T14:04:10.599Z,26.71
2022-08-24T14:07:23.525Z,26.83
2022-08-24T14:10:45.357Z,27.06
2022-08-24T14:14:06.322Z,27.09
2022-08-24T14:17:35.690Z,27.03
2022-08-24T14:21:00.130Z,27.06
2022-08-24T14:24:13.334Z,27.02
2022-08-24T14:27:40.521Z,27.11
2022-08-24T14:30:50.908Z,27.17
2022-08-24T14:34:16.553Z,27.20
2022-08-24T14:37:28.315Z,27.24
2022-08-24T14:40:38.206Z,27.08
2022-08-24T14:44:25.762Z,27.04
2022-08-24T14:47:49.318Z,27.09
2022-08-24T14:51:06.188Z,27.19
2022-08-24T14:54:27.964Z,27.22
2022-08-24T14:57:55.672Z,27.14
2022-08-24T15:01:27.581Z,27.03
2022-08-24T15:04:42.873Z,26.86
2022-08-24T15:07:57.769Z,26.68
2022-08-24T15:11:12.109Z,26.57
2022-08-24T15:14:33.789Z,26.47
2022-08-24T15:17:57.817Z,26.50
2022-08-24T15:21:14.182Z,26.48
2022-08-24T15:24:36.848Z,26.46
2022-08-24T15:27:53.652Z,26.44
2022-08-24T15:31:03.483Z,26.53
2022-08-24T15:34:10.642Z,26.57
2022-08-24T15:37:18.922Z,26.56
2022-08-24T15:40:29.976Z,26.61
2022-08-24T15:43:43.401Z,26.65
2022-08-24T15:46:54.840Z,26.71
2022-08-24T15:50:06.719Z,26.94
2022-08-24T15:53:32.513Z,27.17
2022-08-24T15:56:47.276Z,27.34
2022-08-24T15:59:58.308Z,27.64
2022-08-24T16:03:20.371Z,27.70
2022-08-24T16:06:29.683Z,27.51
2022-08-24T16:09:39.105Z,27.41
2022-08-24T16:12:45.867Z,27.36
2022-08-24T16:16:03.377Z,27.36
2022-08-24T16:19:21.144Z,27.46
2022-08-24T16:22:33.751Z,27.52
2022-08-24T16:25:43.669Z,27.59
2022-08-24T16:28:54.017Z,27.56
2022-08-24T16:32:19.099Z,27.44
2022-08-24T16:35:28.831Z,27.26
2022-08-24T16:38:36.981Z,27.12
2022-08-24T16:41:45.887Z,26.92
2022-08-24T16:44:53.280Z,26.74
2022-08-24T16:48:03.446Z,26.64
2022-08-24T16:51:10.545Z,26.50
2022-08-24T16:54:16.737Z,26.41
2022-08-24T16:57:27.236Z,26.33
2022-08-24T17:00:33.210Z,26.29
2022-08-24T17:03:42.846Z,26.25
2022-08-24T17:06:51.378Z,26.14
2022-08-24T17:09:59.467Z,26.03
2022-08-24T17:13:06.727Z,25.96
2022-08-24T17:16:15.508Z,25.89
2022-08-24T17:19:24.748Z,25.85
2022-08-24T17:22:32.388Z,25.83
2022-08-24T17:25:42.106Z,25.72
2022-08-24T17:28:49.841Z,25.58
2022-08-24T17:31:59.465Z,25.45
2022-08-24T17:35:10.015Z,25.38
2022-08-24T17:38:16.396Z,25.29
2022-08-24T17:41:24.159Z,25.22
2022-08-24T17:44:33.674Z,25.08
2022-08-24T17:47:40.602Z,24.98
2022-08-24T17:50:49.355Z,24.81
2022-08-24T17:53:56.123Z,24.57
2022-08-24T17:57:03.095Z,24.29
2022-08-24T18:00:13.407Z,24.07
2022-08-24T18:03:19.652Z,23.88
2022-08-24T18:06:35.534Z,23.55
2022-08-24T18:09:48.245Z,23.28
2022-08-24T18:12:55.279Z,23.07
2022-08-24T18:16:03.069Z,22.92
2022-08-24T18:19:11.901Z,22.83
2022-08-24T18:22:21.112Z,22.72
2022-08-24T18:25:28.468Z,22.58
2022-08-24T18:28:34.340Z,22.52
2022-08-24T18:31:41.197Z,22.45
2022-08-24T18:34:47.194Z,22.38
2022-08-24T18:37:57.605Z,22.29
2022-08-24T18:41:06.182Z,22.22
2022-08-24T18:44:16.184Z,22.12
2022-08-24T18:47:22.191Z,22.04
2022-08-24T18:50:29.681Z,21.95
2022-08-24T18:53:39.864Z,21.87
2022-08-24T18:56:48.123Z,21.76
2022-08-24T18:59:54.571Z,21.71
2022-08-24T19:03:06.287Z,21.68
2022-08-24T19:06:13.106Z,21.67
2022-08-24T19:09:22.824Z,21.62
2022-08-24T19:12:31.777Z,21.49
2022-08-24T19:15:40.263Z,21.40
2022-08-24T19:18:50.312Z,21.38
2022-08-24T19:21:57.423Z,21.37
2022-08-24T19:25:07.182Z,21.35
2022-08-24T19:28:14.619Z,21.32
2022-08-24T19:31:24.253Z,21.30
2022-08-24T19:34:31.920Z,21.30
2022-08-24T19:37:37.831Z,21.27
2022-08-24T19:40:48.388Z,21.21
2022-08-24T19:44:12.930Z,21.15
2022-08-24T19:47:30.573Z,21.12
2022-08-24T19:50:36.469Z,21.07
2022-08-24T19:53:44.447Z,21.04
2022-08-24T19:56:55.681Z,21.02
2022-08-24T20:00:07.060Z,20.98
2022-08-24T20:03:13.528Z,20.95
2022-08-24T20:06:21.784Z,20.88
2022-08-24T20:09:29.099Z,20.80
2022-08-24T20:12:39.315Z,20.71
2022-08-24T20:15:45.868Z,20.62
2022-08-24T20:18:53.187Z,20.55
2022-08-24T20:21:59.174Z,20.51
2022-08-24T20:25:10.065Z,20.47
2022-08-24T20:28:38.212Z,20.42
2022-08-24T20:31:45.654Z,20.42
2022-08-24T20:34:51.593Z,20.40
2022-08-24T20:37:59.607Z,20.37
2022-08-24T20:41:07.655Z,20.34
2022-08-24T20:44:17.778Z,20.31
2022-08-24T20:47:24.286Z,20.24
2022-08-24T20:50:31.177Z,20.21
2022-08-24T20:53:38.685Z,20.21
2022-08-24T20:56:46.983Z,20.18
2022-08-24T20:59:55.690Z,20.15
2022-08-24T21:03:03.893Z,20.14
2022-08-24T21:06:11.872Z,20.11
2022-08-24T21:09:18.861Z,20.12
2022-08-24T21:12:26.598Z,20.18
2022-08-24T21:15:41.686Z,20.19
2022-08-24T21:18:48.030Z,20.18
2022-08-24T21:21:55.209Z,20.18
2022-08-24T21:25:01.133Z,20.13
2022-08-24T21:28:08.907Z,20.10
2022-08-24T21:31:22.944Z,20.08
2022-08-24T21:34:42.024Z,20.07
2022-08-24T21:37:48.149Z,20.06
2022-08-24T21:40:56.509Z,20.05
2022-08-24T21:44:03.067Z,20.06
2022-08-24T21:47:12.968Z,20.04
2022-08-24T21:50:19.901Z,19.99
2022-08-24T21:53:32.461Z,19.94
2022-08-24T21:56:40.791Z,19.94
2022-08-24T21:59:48.891Z,19.96
2022-08-24T22:02:58.605Z,20.03
2022-08-24T22:06:07.886Z,20.03
2022-08-24T22:09:14.036Z,19.99
2022-08-24T22:12:21.433Z,19.98
2022-08-24T22:15:27.540Z,19.97
2022-08-24T22:18:41.784Z,19.95
2022-08-24T22:21:49.032Z,19.91
2022-08-24T22:24:56.470Z,19.82
2022-08-24T22:28:03.338Z,19.86
2022-08-24T22:31:19.007Z,19.80
2022-08-24T22:34:27.710Z,19.80
2022-08-24T22:37:34.797Z,19.80
2022-08-24T22:40:41.384Z,19.87
2022-08-24T22:44:03.943Z,19.86
2022-08-24T22:47:13.030Z,19.86
2022-08-24T22:50:25.087Z,19.88
2022-08-24T22:53:31.122Z,19.93
2022-08-24T22:56:40.724Z,19.80
2022-08-24T22:59:47.088Z,19.78
2022-08-24T23:02:54.095Z,19.72
2022-08-24T23:06:02.995Z,19.64
2022-08-24T23:09:11.101Z,19.73
2022-08-24T23:12:19.312Z,19.75
2022-08-24T23:15:26.338Z,19.72
2022-08-24T23:18:47.783Z,19.73
2022-08-24T23:21:57.685Z,19.77
2022-08-24T23:25:03.727Z,19.85
2022-08-24T23:28:11.972Z,19.82
2022-08-24T23:31:19.979Z,19.74
2022-08-24T23:34:27.405Z,19.76
2022-08-24T23:37:36.130Z,19.81
2022-08-24T23:40:44.273Z,19.74
2022-08-24T23:43:50.248Z,19.64
2022-08-24T23:46:58.606Z,19.62
2022-08-24T23:50:04.478Z,19.66
2022-08-24T23:53:20.809Z,19.70
2022-08-24T23:56:31.515Z,19.74
2022-08-24T23:59:39.326Z,19.73
